Time;durP1;ratioP1;P1;durP2;ratioP2;P2;SDS_P1;SDS_P2;PMS_P1;PMS_P2;Temp;Humidity;BMP_temperature;BMP_pressure;BME280_temperature;BME280_humidity;BME280_pressure;Samples;Min_cycle;Max_cycle;Signal;HPM_P1;HPM_P2
2023/08/14 00:01:06;;;;;;;;;;;23.40;91.20;;;;;;5044358;28;19992;-74
2023/08/14 00:03:32;;;;;;;;;;;23.40;91.20;;;;;;5040693;28;19979;-74
2023/08/14 00:05:59;;;;;;;;;;;23.40;91.30;;;;;;5046088;28;20011;-74
2023/08/14 00:08:26;;;;;;;;;;;23.40;91.30;;;;;;5045094;28;19983;-74
2023/08/14 00:10:52;;;;;;;;;;;23.40;91.40;;;;;;5045349;28;19987;-74
2023/08/14 00:13:21;;;;;;;;;;;23.40;91.40;;;;;;5042349;28;19983;-73
2023/08/14 00:15:47;;;;;;;;;;;23.30;91.40;;;;;;5041742;28;20088;-73
2023/08/14 00:18:14;;;;;;;;;;;23.30;91.80;;;;;;5045141;28;19975;-73
2023/08/14 00:20:41;;;;;;;;;;;23.30;91.60;;;;;;5043773;28;19980;-75
2023/08/14 00:23:07;;;;;;;;;;;23.30;91.60;;;;;;5042281;28;20157;-74
2023/08/14 00:25:34;;;;;;;;;;;23.30;91.60;;;;;;5047062;28;20015;-75
2023/08/14 00:28:00;;;;;;;;;;;23.30;91.70;;;;;;5044285;28;20027;-75
2023/08/14 00:30:28;;;;;;;;;;;23.30;91.70;;;;;;5041432;28;19976;-75
2023/08/14 00:32:55;;;;;;;;;;;23.30;91.70;;;;;;5042663;28;19987;-74
2023/08/14 00:35:21;;;;;;;;;;;23.20;91.70;;;;;;5042980;28;19991;-74
2023/08/14 00:37:49;;;;;;;;;;;23.20;91.80;;;;;;5046260;28;19986;-74
2023/08/14 00:40:16;;;;;;;;;;;23.20;91.80;;;;;;5043640;28;19987;-74
2023/08/14 00:42:45;;;;;;;;;;;23.20;91.80;;;;;;5045164;28;19976;-74
2023/08/14 00:45:12;;;;;;;;;;;23.20;91.90;;;;;;5043709;28;20023;-73
2023/08/14 00:47:40;;;;;;;;;;;23.20;91.90;;;;;;5041426;28;20038;-74
2023/08/14 00:50:08;;;;;;;;;;;23.20;91.90;;;;;;5043374;28;19987;-75
2023/08/14 00:52:35;;;;;;;;;;;23.20;91.90;;;;;;5042936;28;20459;-74
2023/08/14 00:55:03;;;;;;;;;;;23.20;92.00;;;;;;5042412;28;19995;-73
2023/08/14 00:57:30;;;;;;;;;;;23.20;92.00;;;;;;5040738;28;19976;-74
2023/08/14 00:59:57;;;;;;;;;;;23.10;92.00;;;;;;5039970;28;19980;-74
2023/08/14 01:02:24;;;;;;;;;;;23.10;92.10;;;;;;5044068;28;19992;-75
2023/08/14 01:04:52;;;;;;;;;;;23.10;92.10;;;;;;5045751;28;20062;-74
2023/08/14 01:10:22;;;;;;;;;;;23.10;92.10;;;;;;5026482;28;20515;-73
2023/08/14 01:12:53;;;;;;;;;;;23.10;92.20;;;;;;5044511;28;19988;-74
2023/08/14 01:15:22;;;;;;;;;;;23.10;92.20;;;;;;5045813;28;20002;-74
2023/08/14 01:17:51;;;;;;;;;;;23.10;92.20;;;;;;5046990;28;19986;-74
2023/08/14 01:20:19;;;;;;;;;;;23.10;92.30;;;;;;5044835;28;19980;-74
2023/08/14 01:22:49;;;;;;;;;;;23.10;92.30;;;;;;5046117;28;19987;-74
2023/08/14 01:25:37;;;;;;;;;;;23.00;92.30;;;;;;5042235;28;20010;-74
2023/08/14 01:28:06;;;;;;;;;;;23.10;92.30;;;;;;5039527;28;20003;-75
2023/08/14 01:30:32;;;;;;;;;;;23.00;92.30;;;;;;5044392;28;20314;-74
2023/08/14 01:32:59;;;;;;;;;;;23.00;92.40;;;;;;5043179;28;20073;-74
2023/08/14 01:35:27;;;;;;;;;;;23.00;92.40;;;;;;5042062;28;20110;-74
2023/08/14 01:37:57;;;;;;;;;;;23.00;92.40;;;;;;5045297;28;19976;-74
2023/08/14 01:40:26;;;;;;;;;;;23.00;92.40;;;;;;5040386;28;19975;-74
2023/08/14 01:42:57;;;;;;;;;;;23.00;92.50;;;;;;5044456;28;20003;-74
2023/08/14 01:45:27;;;;;;;;;;;23.00;92.50;;;;;;5042600;28;20015;-74
2023/08/14 01:47:55;;;;;;;;;;;23.00;92.50;;;;;;5043380;28;20014;-74
2023/08/14 01:50:22;;;;;;;;;;;22.90;92.50;;;;;;5040393;28;19976;-73
2023/08/14 01:52:49;;;;;;;;;;;22.90;92.60;;;;;;5040561;28;20022;-74
2023/08/14 01:55:16;;;;;;;;;;;22.90;92.80;;;;;;5042263;28;20458;-72
2023/08/14 01:57:42;;;;;;;;;;;22.90;92.70;;;;;;5041489;28;20437;-74
2023/08/14 02:00:09;;;;;;;;;;;22.90;92.70;;;;;;5040623;28;19980;-74
2023/08/14 02:02:37;;;;;;;;;;;22.90;92.70;;;;;;5038370;28;20078;-74
2023/08/14 02:05:04;;;;;;;;;;;22.90;92.70;;;;;;5041096;28;19999;-74
2023/08/14 02:07:31;;;;;;;;;;;22.80;92.70;;;;;;5037465;28;19992;-74
2023/08/14 02:09:57;;;;;;;;;;;22.80;92.80;;;;;;5042733;28;19984;-73
2023/08/14 02:12:24;;;;;;;;;;;22.80;92.80;;;;;;5016626;28;19987;-71
2023/08/14 02:14:50;;;;;;;;;;;22.80;92.80;;;;;;5016552;28;19996;-73
2023/08/14 02:17:17;;;;;;;;;;;22.80;92.90;;;;;;5016070;28;20221;-74
2023/08/14 02:19:45;;;;;;;;;;;22.80;92.90;;;;;;5015808;28;20438;-73
2023/08/14 02:22:11;;;;;;;;;;;22.80;92.90;;;;;;5017034;28;19975;-75
2023/08/14 02:24:38;;;;;;;;;;;22.80;92.90;;;;;;5015459;28;20725;-74
2023/08/14 02:27:04;;;;;;;;;;;22.80;92.90;;;;;;5014821;28;22012;-72
2023/08/14 02:29:31;;;;;;;;;;;22.80;93.00;;;;;;5017023;28;20402;-74
2023/08/14 02:31:57;;;;;;;;;;;22.80;93.00;;;;;;5016593;28;19992;-73
2023/08/14 02:34:34;;;;;;;;;;;22.70;93.00;;;;;;5016700;28;20007;-73
2023/08/14 02:37:02;;;;;;;;;;;22.70;93.00;;;;;;5016840;28;19991;-74
2023/08/14 02:39:28;;;;;;;;;;;22.70;93.10;;;;;;5014896;28;20003;-74
2023/08/14 02:41:55;;;;;;;;;;;22.70;93.10;;;;;;5015222;28;19982;-74
2023/08/14 02:44:21;;;;;;;;;;;22.70;93.10;;;;;;5016444;28;20450;-72
2023/08/14 02:46:48;;;;;;;;;;;22.70;93.10;;;;;;5017104;28;20000;-73
2023/08/14 02:49:15;;;;;;;;;;;22.70;93.10;;;;;;5020159;28;20277;-73
2023/08/14 02:51:41;;;;;;;;;;;22.70;93.20;;;;;;5020405;28;20301;-74
2023/08/14 02:54:09;;;;;;;;;;;22.60;93.20;;;;;;5022218;28;20010;-75
2023/08/14 02:56:35;;;;;;;;;;;22.60;93.20;;;;;;5018981;28;20000;-75
2023/08/14 02:59:02;;;;;;;;;;;22.60;93.30;;;;;;5020614;28;19987;-75
2023/08/14 03:01:29;;;;;;;;;;;22.60;93.30;;;;;;5019928;28;19999;-73
2023/08/14 03:03:55;;;;;;;;;;;22.50;93.30;;;;;;5022508;28;19976;-74
2023/08/14 03:06:22;;;;;;;;;;;22.50;93.30;;;;;;5021535;28;21520;-72
2023/08/14 03:08:49;;;;;;;;;;;22.50;93.30;;;;;;5022689;28;19976;-74
2023/08/14 03:11:17;;;;;;;;;;;22.50;93.30;;;;;;5032121;28;20038;-73
2023/08/14 03:13:43;;;;;;;;;;;22.50;93.40;;;;;;5046292;28;19983;-74
2023/08/14 03:16:10;;;;;;;;;;;22.50;93.40;;;;;;5040235;28;19995;-75
2023/08/14 03:18:36;;;;;;;;;;;22.50;93.40;;;;;;5042430;28;20054;-75
2023/08/14 03:21:03;;;;;;;;;;;22.50;93.50;;;;;;5043023;28;20014;-74
2023/08/14 03:23:30;;;;;;;;;;;22.50;93.50;;;;;;5045339;28;19979;-73
2023/08/14 03:25:56;;;;;;;;;;;22.50;93.50;;;;;;5035912;28;20460;-74
2023/08/14 03:28:24;;;;;;;;;;;22.40;93.50;;;;;;5045212;28;19992;-74
2023/08/14 03:30:51;;;;;;;;;;;22.50;93.50;;;;;;5039978;28;19995;-74
2023/08/14 03:33:17;;;;;;;;;;;22.40;93.50;;;;;;5043730;28;20066;-74
2023/08/14 03:35:44;;;;;;;;;;;22.40;93.50;;;;;;5044576;28;19995;-75
2023/08/14 03:38:10;;;;;;;;;;;22.40;93.50;;;;;;5045748;28;20063;-75
2023/08/14 03:40:37;;;;;;;;;;;22.40;93.60;;;;;;5042149;28;19984;-75
2023/08/14 03:43:04;;;;;;;;;;;22.30;93.60;;;;;;5044419;28;19979;-74
2023/08/14 03:45:31;;;;;;;;;;;22.30;93.60;;;;;;5041885;28;20007;-74
2023/08/14 03:47:58;;;;;;;;;;;22.30;93.60;;;;;;5046567;28;20002;-75
2023/08/14 03:50:25;;;;;;;;;;;22.30;94.00;;;;;;5040916;28;19983;-74
2023/08/14 03:52:51;;;;;;;;;;;22.30;93.70;;;;;;5044686;28;19980;-74
2023/08/14 03:55:18;;;;;;;;;;;22.30;93.60;;;;;;5041978;28;20003;-75
2023/08/14 03:57:44;;;;;;;;;;;22.30;93.70;;;;;;5041884;28;19984;-72
2023/08/14 04:00:11;;;;;;;;;;;22.30;93.70;;;;;;5042626;28;20461;-74
2023/08/14 04:02:39;;;;;;;;;;;22.30;93.70;;;;;;5038485;28;19984;-74
2023/08/14 04:05:06;;;;;;;;;;;22.30;93.70;;;;;;5044343;28;19991;-75
2023/08/14 04:07:33;;;;;;;;;;;22.20;93.70;;;;;;5046852;28;19991;-73
2023/08/14 04:09:59;;;;;;;;;;;22.20;93.70;;;;;;5043990;28;19999;-72
2023/08/14 04:12:26;;;;;;;;;;;22.20;93.80;;;;;;5043434;28;19987;-73
2023/08/14 04:14:52;;;;;;;;;;;22.20;93.80;;;;;;5044414;28;20496;-74
2023/08/14 04:17:19;;;;;;;;;;;22.10;93.80;;;;;;5044235;28;19991;-74
2023/08/14 04:19:47;;;;;;;;;;;22.10;93.80;;;;;;5045291;28;19976;-75
2023/08/14 04:22:14;;;;;;;;;;;22.10;93.90;;;;;;5046399;28;20453;-74
2023/08/14 04:24:40;;;;;;;;;;;22.10;93.90;;;;;;5046795;28;20053;-73
2023/08/14 04:27:07;;;;;;;;;;;22.10;93.90;;;;;;5042374;28;19991;-74
2023/08/14 04:29:33;;;;;;;;;;;22.10;93.90;;;;;;5043344;28;19986;-74
2023/08/14 04:32:00;;;;;;;;;;;22.00;93.90;;;;;;5043518;28;20002;-74
2023/08/14 04:34:26;;;;;;;;;;;22.10;94.30;;;;;;5043504;28;19980;-74
2023/08/14 04:36:54;;;;;;;;;;;22.00;93.90;;;;;;5045412;28;19983;-74
2023/08/14 04:39:21;;;;;;;;;;;22.00;94.00;;;;;;5043562;28;19975;-74
2023/08/14 04:41:47;;;;;;;;;;;22.00;94.00;;;;;;5044595;28;19986;-74
2023/08/14 04:44:14;;;;;;;;;;;22.00;94.00;;;;;;5042891;28;19982;-75
2023/08/14 04:46:41;;;;;;;;;;;22.00;94.40;;;;;;5045600;28;20001;-74
2023/08/14 04:49:07;;;;;;;;;;;21.90;94.00;;;;;;5043578;28;20007;-74
2023/08/14 04:51:34;;;;;;;;;;;22.00;94.00;;;;;;5042172;28;19990;-74
2023/08/14 04:54:02;;;;;;;;;;;21.90;94.00;;;;;;5046429;28;19980;-74
2023/08/14 04:56:30;;;;;;;;;;;21.90;94.00;;;;;;5046564;28;20081;-75
2023/08/14 04:58:57;;;;;;;;;;;21.90;94.10;;;;;;5040832;28;20732;-75
2023/08/14 05:01:24;;;;;;;;;;;21.90;94.10;;;;;;5041635;28;19995;-73
2023/08/14 05:03:50;;;;;;;;;;;21.90;94.10;;;;;;5040621;28;19976;-75
2023/08/14 05:06:17;;;;;;;;;;;21.90;94.10;;;;;;5040057;28;20477;-75
2023/08/14 05:08:44;;;;;;;;;;;21.80;94.10;;;;;;5043675;28;20760;-73
2023/08/14 05:11:12;;;;;;;;;;;21.80;94.10;;;;;;5042718;28;19983;-73
2023/08/14 05:13:40;;;;;;;;;;;21.80;94.10;;;;;;5049120;28;20793;-75
2023/08/14 05:16:06;;;;;;;;;;;21.80;94.10;;;;;;5045895;28;19999;-74
2023/08/14 05:18:33;;;;;;;;;;;21.80;94.10;;;;;;5042812;28;20075;-75
2023/08/14 05:20:59;;;;;;;;;;;21.80;94.20;;;;;;5045797;28;19983;-74
2023/08/14 05:23:26;;;;;;;;;;;21.80;94.20;;;;;;5042265;28;19976;-74
2023/08/14 05:25:52;;;;;;;;;;;21.80;94.20;;;;;;5040073;28;19992;-75
2023/08/14 05:28:20;;;;;;;;;;;21.80;94.30;;;;;;5037576;28;20005;-72
2023/08/14 05:30:47;;;;;;;;;;;21.80;94.30;;;;;;5037418;28;19996;-73
2023/08/14 05:33:13;;;;;;;;;;;21.70;94.30;;;;;;5038305;28;19987;-72
2023/08/14 05:35:40;;;;;;;;;;;21.80;94.40;;;;;;5041259;28;20006;-75
2023/08/14 05:38:07;;;;;;;;;;;21.70;94.40;;;;;;5039072;28;19999;-75
2023/08/14 05:40:33;;;;;;;;;;;21.70;94.50;;;;;;5037859;28;20550;-73
2023/08/14 05:43:04;;;;;;;;;;;21.70;94.50;;;;;;5040290;28;20002;-74
2023/08/14 05:45:32;;;;;;;;;;;21.70;94.50;;;;;;5038624;28;20118;-74
2023/08/14 05:47:59;;;;;;;;;;;21.70;94.50;;;;;;5045860;28;20034;-74
2023/08/14 05:50:27;;;;;;;;;;;21.70;94.60;;;;;;5038202;28;19983;-75
2023/08/14 05:52:54;;;;;;;;;;;21.70;94.70;;;;;;5042581;28;20079;-74
2023/08/14 05:55:21;;;;;;;;;;;21.70;94.80;;;;;;5036008;28;20552;-75
2023/08/14 05:57:47;;;;;;;;;;;21.70;94.80;;;;;;5041659;28;19983;-74
2023/08/14 06:00:14;;;;;;;;;;;21.70;94.80;;;;;;5039852;28;19990;-74
2023/08/14 06:02:42;;;;;;;;;;;21.70;94.80;;;;;;5044390;28;20030;-73
2023/08/14 06:05:09;;;;;;;;;;;21.70;94.90;;;;;;5039661;28;20041;-76
2023/08/14 06:07:35;;;;;;;;;;;21.70;94.90;;;;;;5041295;28;20077;-75
2023/08/14 06:10:02;;;;;;;;;;;21.70;95.00;;;;;;5035160;28;19998;-75
2023/08/14 06:12:29;;;;;;;;;;;21.70;95.00;;;;;;5040869;28;19976;-75
2023/08/14 06:14:56;;;;;;;;;;;21.70;95.10;;;;;;5036197;28;20258;-74
2023/08/14 06:17:22;;;;;;;;;;;21.70;95.10;;;;;;5037823;28;19995;-73
2023/08/14 06:19:50;;;;;;;;;;;21.70;95.10;;;;;;5043904;28;20509;-73
2023/08/14 06:22:17;;;;;;;;;;;21.70;95.20;;;;;;5045127;28;20680;-73
2023/08/14 06:24:44;;;;;;;;;;;21.70;95.20;;;;;;5045752;28;20000;-74
2023/08/14 06:27:10;;;;;;;;;;;21.70;95.20;;;;;;5046070;28;20066;-72
2023/08/14 06:29:37;;;;;;;;;;;21.70;95.20;;;;;;5040505;28;19991;-74
2023/08/14 06:32:05;;;;;;;;;;;21.70;95.20;;;;;;5048104;28;20485;-73
2023/08/14 06:34:31;;;;;;;;;;;21.70;95.10;;;;;;5048581;28;20515;-74
2023/08/14 06:36:59;;;;;;;;;;;21.70;95.10;;;;;;5049566;28;19990;-73
2023/08/14 06:39:26;;;;;;;;;;;21.70;95.20;;;;;;5047026;28;19980;-73
2023/08/14 06:41:52;;;;;;;;;;;21.80;95.20;;;;;;5049535;28;19979;-73
2023/08/14 06:44:19;;;;;;;;;;;21.80;95.10;;;;;;5044952;28;19987;-74
2023/08/14 06:46:45;;;;;;;;;;;21.80;95.20;;;;;;5050912;28;20388;-74
2023/08/14 06:49:12;;;;;;;;;;;21.80;95.20;;;;;;5044440;28;19995;-73
2023/08/14 06:51:39;;;;;;;;;;;21.80;95.20;;;;;;5046067;28;19980;-79
2023/08/14 06:54:07;;;;;;;;;;;21.80;95.20;;;;;;5043795;28;19976;-80
2023/08/14 06:56:33;;;;;;;;;;;21.80;95.30;;;;;;5047054;28;20014;-79
2023/08/14 06:59:00;;;;;;;;;;;21.90;95.30;;;;;;5045429;28;19983;-80
2023/08/14 07:01:26;;;;;;;;;;;21.90;95.30;;;;;;5034820;28;19988;-77
2023/08/14 07:03:53;;;;;;;;;;;21.90;95.30;;;;;;5044292;28;19976;-79
2023/08/14 07:06:20;;;;;;;;;;;21.90;95.30;;;;;;5044434;28;20496;-79
2023/08/14 07:08:46;;;;;;;;;;;21.90;95.30;;;;;;5043623;28;19995;-79
2023/08/14 07:11:14;;;;;;;;;;;22.00;95.40;;;;;;5042014;28;19983;-78
2023/08/14 07:13:40;;;;;;;;;;;22.00;95.40;;;;;;5044781;28;19979;-80
2023/08/14 07:16:07;;;;;;;;;;;22.00;95.40;;;;;;5043108;28;20010;-79
2023/08/14 07:18:33;;;;;;;;;;;22.00;95.30;;;;;;5047144;28;19980;-79
2023/08/14 07:21:00;;;;;;;;;;;22.00;95.20;;;;;;5045720;28;19983;-80
2023/08/14 07:23:27;;;;;;;;;;;22.00;95.60;;;;;;5045866;28;20524;-79
2023/08/14 07:25:53;;;;;;;;;;;22.00;95.20;;;;;;5040581;28;20000;-78
2023/08/14 07:28:21;;;;;;;;;;;22.00;95.20;;;;;;5043823;28;19998;-79
2023/08/14 07:30:48;;;;;;;;;;;22.10;95.30;;;;;;5041079;28;19980;-79
2023/08/14 07:33:15;;;;;;;;;;;22.10;95.30;;;;;;5043335;28;19976;-78
2023/08/14 07:35:42;;;;;;;;;;;22.10;95.50;;;;;;5045627;28;20002;-78
2023/08/14 07:38:09;;;;;;;;;;;22.10;95.30;;;;;;5041842;28;19983;-77
2023/08/14 07:40:36;;;;;;;;;;;22.10;95.30;;;;;;5042702;28;19983;-80
2023/08/14 07:43:03;;;;;;;;;;;22.10;95.30;;;;;;5040284;28;19998;-80
2023/08/14 07:45:31;;;;;;;;;;;22.20;95.20;;;;;;5045665;28;20010;-81
2023/08/14 07:47:57;;;;;;;;;;;22.20;95.20;;;;;;5046416;28;19976;-80
2023/08/14 07:50:24;;;;;;;;;;;22.20;95.40;;;;;;5046515;28;19983;-80
2023/08/14 07:52:50;;;;;;;;;;;22.30;95.10;;;;;;5044908;28;19987;-78
2023/08/14 07:55:17;;;;;;;;;;;22.30;95.10;;;;;;5043523;28;20003;-79
2023/08/14 07:57:45;;;;;;;;;;;22.30;95.10;;;;;;5045142;28;19980;-79
2023/08/14 08:00:13;;;;;;;;;;;22.30;95.00;;;;;;5040229;28;20038;-79
2023/08/14 08:02:40;;;;;;;;;;;22.30;95.00;;;;;;5040321;28;20019;-83
2023/08/14 08:05:07;;;;;;;;;;;22.40;94.90;;;;;;5041811;28;19999;-78
2023/08/14 08:07:34;;;;;;;;;;;22.40;94.90;;;;;;5044246;28;20373;-77
2023/08/14 08:10:01;;;;;;;;;;;22.40;94.80;;;;;;5043090;28;20389;-80
2023/08/14 08:12:28;;;;;;;;;;;22.40;94.80;;;;;;5040441;28;19989;-78
2023/08/14 08:14:55;;;;;;;;;;;22.50;94.70;;;;;;5044507;28;20003;-79
2023/08/14 08:17:22;;;;;;;;;;;22.50;94.70;;;;;;5044848;28;19995;-77
2023/08/14 08:19:51;;;;;;;;;;;22.50;94.60;;;;;;5041284;28;19991;-79
2023/08/14 08:22:17;;;;;;;;;;;22.60;94.60;;;;;;5045195;28;19976;-79
2023/08/14 08:24:44;;;;;;;;;;;22.60;94.50;;;;;;5043339;28;19999;-78
2023/08/14 08:27:11;;;;;;;;;;;22.60;94.50;;;;;;5044485;28;19979;-79
2023/08/14 08:29:37;;;;;;;;;;;22.60;94.40;;;;;;5044657;28;20456;-79
2023/08/14 08:32:04;;;;;;;;;;;22.70;94.40;;;;;;5046194;28;19991;-78
2023/08/14 08:34:31;;;;;;;;;;;22.70;94.30;;;;;;5049449;28;20015;-79
2023/08/14 08:36:59;;;;;;;;;;;22.70;94.30;;;;;;5047131;28;19986;-81
2023/08/14 08:39:25;;;;;;;;;;;22.70;94.30;;;;;;5042153;28;20033;-80
2023/08/14 08:41:53;;;;;;;;;;;22.80;94.30;;;;;;5042024;28;19976;-80
2023/08/14 08:44:22;;;;;;;;;;;22.80;94.20;;;;;;5044656;28;20449;-79
2023/08/14 08:46:51;;;;;;;;;;;22.80;94.20;;;;;;5044322;28;20468;-79
2023/08/14 08:49:18;;;;;;;;;;;22.90;94.10;;;;;;5025603;28;19998;-78
2023/08/14 08:51:45;;;;;;;;;;;23.00;94.10;;;;;;5035187;28;19980;-79
2023/08/14 08:54:14;;;;;;;;;;;23.00;94.10;;;;;;5044490;28;20049;-79
2023/08/14 08:56:41;;;;;;;;;;;23.00;94.20;;;;;;5040189;28;20067;-77
2023/08/14 08:59:08;;;;;;;;;;;23.00;94.60;;;;;;5040888;28;20075;-79
2023/08/14 09:01:35;;;;;;;;;;;23.10;94.60;;;;;;5046018;28;21994;-81
2023/08/14 09:04:02;;;;;;;;;;;23.10;94.20;;;;;;5044689;28;19980;-79
2023/08/14 09:06:28;;;;;;;;;;;23.20;94.10;;;;;;5036657;28;19995;-80
2023/08/14 09:08:55;;;;;;;;;;;23.20;94.10;;;;;;5041749;28;20372;-79
2023/08/14 09:11:23;;;;;;;;;;;23.30;93.80;;;;;;5041557;28;19990;-78
2023/08/14 09:13:49;;;;;;;;;;;23.40;93.70;;;;;;5040703;28;19975;-77
2023/08/14 09:16:16;;;;;;;;;;;23.40;93.60;;;;;;5036803;28;20645;-77
2023/08/14 09:18:43;;;;;;;;;;;23.40;93.50;;;;;;5043350;28;19976;-79
2023/08/14 09:21:09;;;;;;;;;;;23.50;93.40;;;;;;5047500;28;20006;-79
2023/08/14 09:23:36;;;;;;;;;;;23.60;93.30;;;;;;5046609;28;19979;-81
2023/08/14 09:26:03;;;;;;;;;;;23.60;93.10;;;;;;5040361;28;19995;-79
2023/08/14 09:28:31;;;;;;;;;;;23.70;93.00;;;;;;5048696;28;19987;-79
2023/08/14 09:31:05;;;;;;;;;;;23.80;92.90;;;;;;5048655;28;19992;-79
2023/08/14 09:33:32;;;;;;;;;;;23.80;92.80;;;;;;5043934;28;19978;-79
2023/08/14 09:35:59;;;;;;;;;;;23.90;92.70;;;;;;5043733;28;20000;-80
2023/08/14 09:38:25;;;;;;;;;;;24.00;92.50;;;;;;5044592;28;19979;-78
2023/08/14 09:40:55;;;;;;;;;;;24.00;92.20;;;;;;5040808;28;19990;-78
2023/08/14 09:43:23;;;;;;;;;;;24.10;92.00;;;;;;5040270;28;19987;-79
2023/08/14 09:45:51;;;;;;;;;;;24.10;91.90;;;;;;5046142;28;20649;-78
2023/08/14 09:48:18;;;;;;;;;;;24.20;91.90;;;;;;5044713;28;19984;-80
2023/08/14 09:50:48;;;;;;;;;;;24.30;91.70;;;;;;5047832;28;19996;-79
2023/08/14 09:53:15;;;;;;;;;;;24.30;91.60;;;;;;5042981;28;20453;-79
2023/08/14 09:55:42;;;;;;;;;;;24.30;91.50;;;;;;5039867;28;22027;-81
2023/08/14 09:58:09;;;;;;;;;;;24.40;91.40;;;;;;5050637;28;19976;-78
2023/08/14 10:00:38;;;;;;;;;;;24.50;91.40;;;;;;5046805;28;20000;-78
2023/08/14 10:03:08;;;;;;;;;;;24.40;91.30;;;;;;5045984;28;19991;-79
2023/08/14 10:05:37;;;;;;;;;;;24.50;91.30;;;;;;5041869;28;20015;-80
2023/08/14 10:08:06;;;;;;;;;;;24.50;91.20;;;;;;5048955;28;19980;-79
2023/08/14 10:10:33;;;;;;;;;;;24.50;91.10;;;;;;5048002;28;20006;-79
2023/08/14 10:13:01;;;;;;;;;;;24.50;91.00;;;;;;5048481;28;20137;-80
2023/08/14 10:15:29;;;;;;;;;;;24.60;90.90;;;;;;5049214;28;19995;-78
2023/08/14 10:17:57;;;;;;;;;;;24.70;90.70;;;;;;5048462;28;21142;-80
2023/08/14 10:20:25;;;;;;;;;;;24.70;90.60;;;;;;5049059;28;20422;-79
2023/08/14 10:22:52;;;;;;;;;;;24.80;90.60;;;;;;5040321;28;20391;-78
2023/08/14 10:25:20;;;;;;;;;;;24.90;90.50;;;;;;5040537;28;20525;-78
2023/08/14 10:27:47;;;;;;;;;;;24.90;90.40;;;;;;5046662;28;19984;-79
2023/08/14 10:30:14;;;;;;;;;;;25.00;90.30;;;;;;5047148;28;19998;-78
2023/08/14 10:32:40;;;;;;;;;;;25.10;90.00;;;;;;5048541;28;19980;-79
2023/08/14 10:35:08;;;;;;;;;;;25.10;90.00;;;;;;5046242;28;20002;-80
2023/08/14 10:37:42;;;;;;;;;;;25.20;90.00;;;;;;5044849;28;19999;-78
2023/08/14 10:40:16;;;;;;;;;;;25.30;89.80;;;;;;5040542;28;19979;-80
2023/08/14 10:42:44;;;;;;;;;;;25.40;89.50;;;;;;5046158;28;19988;-79
2023/08/14 10:45:11;;;;;;;;;;;25.40;89.00;;;;;;5044676;28;20014;-78
2023/08/14 10:47:38;;;;;;;;;;;25.50;88.70;;;;;;5040485;28;19975;-79
2023/08/14 10:50:12;;;;;;;;;;;25.50;88.60;;;;;;5040079;28;19996;-78
2023/08/14 10:52:39;;;;;;;;;;;25.60;88.40;;;;;;5040807;28;20024;-79
2023/08/14 10:55:14;;;;;;;;;;;25.70;88.30;;;;;;5049191;28;20010;-79
2023/08/14 10:57:40;;;;;;;;;;;25.70;88.20;;;;;;5043122;28;20475;-80
2023/08/14 11:00:18;;;;;;;;;;;25.80;88.10;;;;;;5040715;28;19976;-78
2023/08/14 11:02:49;;;;;;;;;;;25.90;87.70;;;;;;4981604;28;1728803;-78
2023/08/14 11:05:16;;;;;;;;;;;25.90;87.50;;;;;;5039545;28;20002;-78
2023/08/14 11:07:56;;;;;;;;;;;26.00;87.50;;;;;;5050326;28;19976;-81
2023/08/14 11:10:24;;;;;;;;;;;26.00;87.40;;;;;;5048038;28;20338;-80
2023/08/14 11:12:50;;;;;;;;;;;26.10;86.90;;;;;;5051499;28;19980;-79
2023/08/14 11:15:19;;;;;;;;;;;26.20;86.60;;;;;;5043856;28;19992;-79
2023/08/14 11:17:45;;;;;;;;;;;26.20;86.70;;;;;;5044273;28;20022;-78
2023/08/14 11:20:12;;;;;;;;;;;26.30;86.10;;;;;;5045208;28;19982;-79
2023/08/14 11:22:39;;;;;;;;;;;26.40;86.10;;;;;;5042694;28;20535;-79
2023/08/14 11:25:06;;;;;;;;;;;26.40;85.80;;;;;;5044374;28;20011;-78
2023/08/14 11:27:34;;;;;;;;;;;26.50;85.40;;;;;;5049459;28;19976;-79
2023/08/14 11:30:02;;;;;;;;;;;26.60;85.00;;;;;;5046172;28;19996;-79
2023/08/14 11:32:28;;;;;;;;;;;26.70;85.10;;;;;;5049984;28;19996;-79
2023/08/14 11:34:55;;;;;;;;;;;26.80;84.20;;;;;;5044997;28;20373;-78
2023/08/14 11:37:21;;;;;;;;;;;26.80;84.30;;;;;;5039775;28;20424;-78
2023/08/14 11:39:49;;;;;;;;;;;26.90;83.40;;;;;;5042924;28;19980;-79
2023/08/14 11:42:15;;;;;;;;;;;26.90;83.30;;;;;;5042071;28;19972;-79
2023/08/14 11:44:43;;;;;;;;;;;27.00;83.40;;;;;;5044411;28;19996;-79
2023/08/14 11:47:11;;;;;;;;;;;27.10;83.10;;;;;;5041426;28;19996;-80
2023/08/14 11:49:38;;;;;;;;;;;27.10;82.90;;;;;;5043935;28;20136;-78
2023/08/14 11:52:05;;;;;;;;;;;27.20;82.20;;;;;;5044521;28;19980;-79
2023/08/14 11:54:31;;;;;;;;;;;27.20;82.40;;;;;;5047135;28;20437;-78
2023/08/14 11:57:01;;;;;;;;;;;27.30;82.30;;;;;;5042598;28;20006;-79
2023/08/14 11:59:27;;;;;;;;;;;27.40;82.30;;;;;;5045863;28;20058;-81
2023/08/14 12:01:57;;;;;;;;;;;27.40;81.80;;;;;;5045715;28;19999;-80
2023/08/14 12:04:23;;;;;;;;;;;27.50;81.40;;;;;;5047289;28;19987;-81
2023/08/14 12:06:50;;;;;;;;;;;27.50;81.30;;;;;;5047113;28;19986;-79
2023/08/14 12:09:16;;;;;;;;;;;27.50;80.80;;;;;;5048676;28;19976;-78
2023/08/14 12:11:45;;;;;;;;;;;27.60;80.80;;;;;;5046649;28;20002;-78
2023/08/14 12:14:11;;;;;;;;;;;27.60;80.70;;;;;;5043368;28;19980;-79
2023/08/14 12:16:39;;;;;;;;;;;27.70;79.20;;;;;;5049230;28;19999;-79
2023/08/14 12:19:09;;;;;;;;;;;27.70;79.10;;;;;;5043777;28;20505;-78
2023/08/14 12:21:35;;;;;;;;;;;27.80;78.70;;;;;;5048183;28;19976;-77
2023/08/14 12:24:02;;;;;;;;;;;27.80;78.80;;;;;;5047082;28;20119;-77
2023/08/14 12:26:35;;;;;;;;;;;27.90;79.00;;;;;;5045985;28;20038;-80
2023/08/14 12:29:02;;;;;;;;;;;28.00;79.00;;;;;;5044338;28;20025;-78
2023/08/14 12:31:29;;;;;;;;;;;28.00;78.60;;;;;;5045847;28;19995;-79
2023/08/14 12:33:55;;;;;;;;;;;28.10;78.10;;;;;;5043853;28;19999;-79
2023/08/14 12:36:23;;;;;;;;;;;28.10;78.20;;;;;;5037388;28;20485;-78
2023/08/14 12:38:49;;;;;;;;;;;28.20;78.40;;;;;;5045329;28;19976;-79
2023/08/14 12:41:16;;;;;;;;;;;28.20;78.10;;;;;;5041428;28;20353;-79
2023/08/14 12:43:43;;;;;;;;;;;28.30;77.70;;;;;;5044042;28;20835;-79
2023/08/14 12:46:09;;;;;;;;;;;28.30;77.50;;;;;;5046916;28;20000;-79
2023/08/14 12:48:36;;;;;;;;;;;28.30;77.50;;;;;;5044014;28;20033;-79
2023/08/14 12:51:03;;;;;;;;;;;28.30;77.30;;;;;;5041825;28;19991;-79
2023/08/14 12:53:31;;;;;;;;;;;28.30;77.00;;;;;;5042715;28;19983;-77
2023/08/14 12:55:57;;;;;;;;;;;28.30;77.40;;;;;;5041298;28;19999;-76
2023/08/14 12:58:25;;;;;;;;;;;28.30;76.80;;;;;;5043450;28;19974;-80
2023/08/14 13:00:51;;;;;;;;;;;28.30;77.10;;;;;;5043622;28;20022;-79
2023/08/14 13:03:18;;;;;;;;;;;28.30;77.20;;;;;;5038507;28;20003;-81
2023/08/14 13:05:45;;;;;;;;;;;28.40;77.40;;;;;;5035599;28;19999;-80
2023/08/14 13:08:11;;;;;;;;;;;28.40;77.70;;;;;;5033748;28;19980;-78
2023/08/14 13:10:39;;;;;;;;;;;28.40;77.60;;;;;;5042000;28;20000;-77
2023/08/14 13:13:07;;;;;;;;;;;28.50;77.80;;;;;;5039779;28;19991;-80
2023/08/14 13:15:34;;;;;;;;;;;28.40;77.50;;;;;;5037207;28;19996;-78
2023/08/14 13:18:00;;;;;;;;;;;28.40;77.60;;;;;;5041408;28;19976;-78
2023/08/14 13:20:27;;;;;;;;;;;28.50;77.70;;;;;;5039188;28;19983;-77
2023/08/14 13:22:53;;;;;;;;;;;28.50;77.80;;;;;;5041730;28;20844;-78
2023/08/14 13:25:20;;;;;;;;;;;28.50;77.80;;;;;;5042642;28;19992;-78
2023/08/14 13:27:48;;;;;;;;;;;28.50;77.90;;;;;;5043407;28;20054;-79
2023/08/14 13:30:14;;;;;;;;;;;28.50;77.90;;;;;;5041064;28;20151;-79
2023/08/14 13:32:41;;;;;;;;;;;28.50;77.80;;;;;;5040078;28;20453;-79
2023/08/14 13:35:08;;;;;;;;;;;28.50;77.90;;;;;;5034552;28;19999;-80
2023/08/14 13:37:34;;;;;;;;;;;28.60;78.10;;;;;;5039444;28;20070;-78
2023/08/14 13:40:01;;;;;;;;;;;28.50;78.20;;;;;;5044618;28;19987;-81
2023/08/14 13:42:27;;;;;;;;;;;28.50;78.20;;;;;;5043866;28;19979;-80
2023/08/14 13:44:55;;;;;;;;;;;28.50;78.40;;;;;;5042157;28;19995;-78
2023/08/14 13:47:22;;;;;;;;;;;28.50;78.60;;;;;;5044287;28;20013;-79
2023/08/14 13:49:48;;;;;;;;;;;28.50;78.80;;;;;;5037469;28;20588;-75
2023/08/14 13:52:15;;;;;;;;;;;28.60;79.00;;;;;;5036287;28;19979;-75
2023/08/14 13:54:42;;;;;;;;;;;28.50;79.10;;;;;;5044385;28;20000;-76
2023/08/14 13:57:09;;;;;;;;;;;28.50;79.40;;;;;;5044074;28;19979;-76
2023/08/14 13:59:35;;;;;;;;;;;28.50;79.50;;;;;;5046226;28;19976;-76
2023/08/14 14:02:03;;;;;;;;;;;28.60;79.70;;;;;;5038843;28;19995;-75
2023/08/14 14:04:30;;;;;;;;;;;28.50;79.70;;;;;;5043334;28;19979;-77
2023/08/14 14:06:56;;;;;;;;;;;28.50;79.70;;;;;;5042738;28;19987;-76
2023/08/14 14:09:23;;;;;;;;;;;28.50;79.90;;;;;;5043315;28;19983;-76
2023/08/14 14:11:49;;;;;;;;;;;28.60;80.10;;;;;;5043366;28;19996;-76
2023/08/14 14:14:16;;;;;;;;;;;28.50;80.10;;;;;;5043743;28;19972;-75
2023/08/14 14:16:52;;;;;;;;;;;28.50;80.20;;;;;;5047551;28;20003;-76
2023/08/14 14:19:20;;;;;;;;;;;28.60;80.40;;;;;;5042597;28;20453;-76